createdAt,value
2023-04-01T00:01:49.427Z,10.50
2023-04-01T00:04:17.020Z,10.50
2023-04-01T00:06:44.127Z,10.50
2023-04-01T00:09:11.528Z,10.50
2023-04-01T00:11:38.593Z,10.60
2023-04-01T00:14:06.257Z,10.60
2023-04-01T00:16:33.455Z,10.60
2023-04-01T00:19:01.259Z,10.60
2023-04-01T00:21:28.332Z,10.60
2023-04-01T00:23:55.477Z,10.60
2023-04-01T00:26:23.182Z,10.60
2023-04-01T00:28:50.596Z,10.60
2023-04-01T00:31:17.844Z,10.50
2023-04-01T00:33:44.966Z,10.50
2023-04-01T00:36:18.289Z,10.50
2023-04-01T00:38:46.048Z,10.50
2023-04-01T00:41:15.884Z,10.60
2023-04-01T00:43:45.008Z,10.60
2023-04-01T00:46:12.369Z,10.60
2023-04-01T00:49:00.005Z,10.60
2023-04-01T00:51:30.218Z,10.70
2023-04-01T00:54:00.527Z,10.70
2023-04-01T00:56:34.160Z,10.70
2023-04-01T00:59:53.841Z,10.70
2023-04-01T01:02:21.754Z,10.70
2023-04-01T01:04:48.766Z,10.70
2023-04-01T01:07:39.717Z,10.70
2023-04-01T01:10:16.534Z,10.70
2023-04-01T01:13:08.558Z,10.60
2023-04-01T01:15:53.066Z,10.60
2023-04-01T01:18:35.946Z,10.60
2023-04-01T01:21:21.955Z,10.60
2023-04-01T01:24:14.820Z,10.50
2023-04-01T01:26:50.320Z,10.50
2023-04-01T01:29:36.346Z,10.50
2023-04-01T01:32:28.007Z,10.50
2023-04-01T01:35:07.039Z,10.50
2023-04-01T01:37:34.490Z,10.50
2023-04-01T01:40:06.503Z,10.50
2023-04-01T01:42:38.160Z,10.50
2023-04-01T01:45:08.680Z,10.50
2023-04-01T01:47:37.033Z,10.50
2023-04-01T01:50:06.090Z,10.50
2023-04-01T01:52:33.137Z,10.50
2023-04-01T01:55:00.191Z,10.60
2023-04-01T01:57:32.767Z,10.60
2023-04-01T02:00:14.704Z,10.50
2023-04-01T02:02:49.416Z,10.50
2023-04-01T02:05:20.959Z,10.60
2023-04-01T02:08:07.762Z,10.50
2023-04-01T02:10:38.949Z,10.60
2023-04-01T02:13:12.726Z,10.50
2023-04-01T02:15:47.229Z,10.50
2023-04-01T02:18:16.736Z,10.60
2023-04-01T02:20:45.674Z,10.50
2023-04-01T02:23:13.610Z,10.50
2023-04-01T02:25:43.089Z,10.50
2023-04-01T02:28:11.805Z,10.50
2023-04-01T02:30:42.939Z,10.50
2023-04-01T02:33:10.545Z,10.50
2023-04-01T02:35:41.317Z,10.50
2023-04-01T02:38:08.579Z,10.50
2023-04-01T02:40:50.922Z,10.50
2023-04-01T02:43:18.831Z,10.50
2023-04-01T02:45:46.093Z,10.40
2023-04-01T02:48:15.162Z,10.40
2023-04-01T02:50:42.178Z,10.40
2023-04-01T02:53:09.311Z,10.40
2023-04-01T02:55:36.698Z,10.30
2023-04-01T02:58:04.044Z,10.30
2023-04-01T03:00:31.484Z,10.30
2023-04-01T03:02:58.749Z,10.20
2023-04-01T03:05:26.008Z,10.20
2023-04-01T03:07:53.084Z,10.10
2023-04-01T03:10:20.122Z,10.10
2023-04-01T03:12:47.198Z,10.10
2023-04-01T03:15:15.826Z,10.10
2023-04-01T03:17:43.864Z,10.10
2023-04-01T03:20:12.332Z,10.00
2023-04-01T03:22:41.523Z,10.00
2023-04-01T03:25:11.100Z,10.00
2023-04-01T03:27:38.389Z,10.00
2023-04-01T03:30:07.027Z,10.00
2023-04-01T03:32:34.138Z,10.00
2023-04-01T03:35:01.245Z,9.90
2023-04-01T03:37:28.613Z,10.00
2023-04-01T03:39:55.637Z,10.00
2023-04-01T03:42:22.852Z,10.00
2023-04-01T03:44:49.905Z,10.00
2023-04-01T03:47:16.949Z,10.00
2023-04-01T03:49:43.936Z,10.00
2023-04-01T03:52:12.221Z,10.00
2023-04-01T03:54:39.491Z,10.00
2023-04-01T03:57:06.790Z,10.00
2023-04-01T03:59:33.913Z,10.00
2023-04-01T04:02:01.210Z,10.00
2023-04-01T04:04:28.695Z,10.00
2023-04-01T04:06:56.042Z,10.00
2023-04-01T04:09:23.840Z,9.90
2023-04-01T04:11:51.202Z,9.90
2023-04-01T04:14:18.820Z,9.90
2023-04-01T04:16:45.833Z,9.90
2023-04-01T04:19:13.104Z,9.90
2023-04-01T04:21:41.651Z,9.90
2023-04-01T04:24:09.200Z,9.90
2023-04-01T04:26:36.219Z,9.80
2023-04-01T04:29:03.916Z,9.80
2023-04-01T04:31:31.029Z,9.80
2023-04-01T04:33:59.689Z,9.80
2023-04-01T04:36:26.781Z,9.70
2023-04-01T04:38:54.075Z,9.70
2023-04-01T04:41:22.869Z,9.70
2023-04-01T04:43:55.896Z,9.60
2023-04-01T04:46:23.969Z,9.60
2023-04-01T04:48:51.014Z,9.60
2023-04-01T04:51:20.278Z,9.60
2023-04-01T04:53:49.640Z,9.60
2023-04-01T04:56:22.499Z,9.60
2023-04-01T04:58:50.094Z,9.60
2023-04-01T05:01:18.480Z,9.60
2023-04-01T05:03:46.449Z,9.60
2023-04-01T05:06:15.663Z,9.60
2023-04-01T05:08:44.434Z,9.60
2023-04-01T05:11:16.120Z,9.60
2023-04-01T05:13:44.229Z,9.60
2023-04-01T05:16:13.625Z,9.60
2023-04-01T05:18:40.898Z,9.70
2023-04-01T05:21:10.319Z,9.70
2023-04-01T05:23:37.864Z,9.70
2023-04-01T05:26:10.775Z,9.80
2023-04-01T05:28:38.099Z,9.80
2023-04-01T05:31:06.719Z,9.90
2023-04-01T05:33:34.211Z,9.80
2023-04-01T05:36:09.210Z,9.90
2023-04-01T05:38:36.426Z,9.90
2023-04-01T05:41:04.540Z,10.00
2023-04-01T05:43:31.717Z,10.00
2023-04-01T05:45:59.192Z,10.00
2023-04-01T05:48:26.222Z,10.10
2023-04-01T05:50:53.373Z,10.10
2023-04-01T05:53:21.482Z,10.20
2023-04-01T05:55:48.487Z,10.30
2023-04-01T05:58:15.587Z,10.40
2023-04-01T06:00:42.702Z,10.40
2023-04-01T06:03:09.865Z,10.40
2023-04-01T06:05:46.221Z,10.50
2023-04-01T06:08:19.034Z,10.50
2023-04-01T06:11:01.056Z,10.50
2023-04-01T06:13:50.908Z,10.60
2023-04-01T06:16:47.567Z,10.60
2023-04-01T06:19:20.418Z,10.60
2023-04-01T06:22:08.563Z,10.60
2023-04-01T06:24:57.985Z,10.70
2023-04-01T06:28:09.564Z,10.60
2023-04-01T06:30:47.070Z,10.70
2023-04-01T06:33:33.738Z,10.70
2023-04-01T06:36:32.695Z,10.70
2023-04-01T06:39:24.943Z,10.80
2023-04-01T06:42:09.471Z,10.80
2023-04-01T06:45:07.540Z,10.90
2023-04-01T06:47:55.844Z,10.90
2023-04-01T06:50:30.195Z,10.90
2023-04-01T06:53:18.958Z,10.90
2023-04-01T06:56:03.192Z,10.90
2023-04-01T06:58:40.617Z,11.00
2023-04-01T07:01:49.871Z,11.00
2023-04-01T07:04:26.109Z,11.00
2023-04-01T07:07:13.762Z,11.00
2023-04-01T07:09:44.673Z,11.00
2023-04-01T07:12:30.512Z,11.00
2023-04-01T07:14:59.764Z,10.90
2023-04-01T07:17:33.896Z,10.90
2023-04-01T07:20:13.102Z,10.90
2023-04-01T07:22:53.658Z,10.90
2023-04-01T07:25:26.436Z,10.90
2023-04-01T07:28:06.295Z,10.80
2023-04-01T07:31:10.094Z,10.90
2023-04-01T07:33:47.107Z,11.00
2023-04-01T07:36:40.458Z,11.10
2023-04-01T07:39:38.467Z,11.20
2023-04-01T07:42:08.598Z,11.50
2023-04-01T07:44:41.803Z,11.70
2023-04-01T07:47:34.652Z,11.90
2023-04-01T07:50:20.398Z,12.30
2023-04-01T07:52:50.513Z,12.60
2023-04-01T07:55:26.487Z,12.80
2023-04-01T07:58:21.340Z,12.90
2023-04-01T08:00:48.337Z,13.10
2023-04-01T08:03:34.253Z,13.30
2023-04-01T08:06:07.496Z,13.60
2023-04-01T08:09:07.027Z,13.70
2023-04-01T08:12:00.424Z,13.80
2023-04-01T08:14:47.120Z,13.70
2023-04-01T08:17:46.026Z,13.80
2023-04-01T08:20:24.388Z,13.90
2023-04-01T08:23:02.081Z,13.90
2023-04-01T08:25:32.235Z,13.80
2023-04-01T08:28:09.899Z,14.00
2023-04-01T08:30:48.926Z,14.00
2023-04-01T08:33:19.003Z,14.20
2023-04-01T08:35:59.777Z,14.40
2023-04-01T08:38:55.745Z,14.50
2023-04-01T08:41:50.746Z,14.50
2023-04-01T08:44:30.976Z,14.70
2023-04-01T08:47:07.131Z,14.70
2023-04-01T08:49:54.975Z,14.60
2023-04-01T08:52:25.085Z,14.50
2023-04-01T08:54:57.717Z,14.50
2023-04-01T08:57:45.956Z,14.50
2023-04-01T09:00:23.222Z,14.50
2023-04-01T09:03:02.395Z,14.50
2023-04-01T09:06:01.062Z,14.80
2023-04-01T09:08:40.449Z,14.90
2023-04-01T09:11:09.883Z,15.00
2023-04-01T09:14:06.190Z,15.00
2023-04-01T09:17:10.251Z,14.90
2023-04-01T09:19:43.228Z,14.90
2023-04-01T09:23:02.541Z,14.80
2023-04-01T09:25:48.294Z,14.70
2023-04-01T09:28:40.541Z,14.60
2023-04-01T09:31:19.647Z,14.60
2023-04-01T09:34:02.391Z,14.50
2023-04-01T09:36:46.201Z,14.50
2023-04-01T09:39:34.306Z,14.30
2023-04-01T09:42:01.483Z,14.20
2023-04-01T09:44:41.831Z,14.20
2023-04-01T09:47:34.529Z,14.40
2023-04-01T09:50:07.912Z,14.50
2023-04-01T09:52:48.852Z,14.60
2023-04-01T09:55:21.003Z,14.70
2023-04-01T09:58:08.320Z,14.80
2023-04-01T10:01:03.468Z,14.80
2023-04-01T10:03:45.416Z,14.80
2023-04-01T10:06:26.787Z,15.00
2023-04-01T10:09:07.953Z,15.30
2023-04-01T10:12:09.272Z,15.30
2023-04-01T10:15:02.539Z,15.10
2023-04-01T10:18:11.324Z,15.10
2023-04-01T10:20:41.473Z,15.00
2023-04-01T10:23:14.440Z,15.10
2023-04-01T10:25:41.416Z,15.00
2023-04-01T10:28:37.027Z,15.00
2023-04-01T10:31:22.344Z,15.10
2023-04-01T10:34:46.650Z,15.10
2023-04-01T10:37:33.905Z,15.00
2023-04-01T10:40:23.705Z,15.10
2023-04-01T10:43:15.569Z,15.10
2023-04-01T10:46:08.527Z,15.30
2023-04-01T10:49:01.378Z,15.30
2023-04-01T10:52:05.288Z,15.60
2023-04-01T10:54:50.202Z,15.80
2023-04-01T10:57:29.308Z,15.80
2023-04-01T11:00:24.955Z,15.80
2023-04-01T11:03:28.740Z,15.80
2023-04-01T11:06:01.710Z,15.70
2023-04-01T11:09:01.290Z,15.70
2023-04-01T11:12:05.666Z,15.70
2023-04-01T11:14:56.524Z,15.60
2023-04-01T11:17:54.019Z,15.50
2023-04-01T11:20:45.481Z,15.40
2023-04-01T11:23:33.342Z,15.40
2023-04-01T11:26:27.884Z,15.20
2023-04-01T11:29:32.695Z,15.20
2023-04-01T11:32:36.885Z,15.30
2023-04-01T11:35:24.368Z,15.30
2023-04-01T11:38:22.262Z,15.50
2023-04-01T11:41:11.587Z,15.60
2023-04-01T11:43:38.580Z,15.70
2023-04-01T11:46:31.375Z,15.80
2023-04-01T11:49:55.050Z,15.80
2023-04-01T11:52:40.539Z,15.90
2023-04-01T11:55:42.054Z,16.00
2023-04-01T11:58:27.130Z,16.00
2023-04-01T12:01:08.902Z,16.00
2023-04-01T12:03:44.791Z,16.10
2023-04-01T12:06:39.143Z,16.50
2023-04-01T12:09:16.862Z,17.10
2023-04-01T12:12:03.190Z,17.50
2023-04-01T12:14:45.124Z,17.40
2023-04-01T12:17:29.366Z,17.40
2023-04-01T12:20:26.930Z,17.20
2023-04-01T12:23:15.095Z,17.10
2023-04-01T12:26:11.193Z,16.90
2023-04-01T12:29:02.766Z,16.70
2023-04-01T12:31:54.391Z,16.80
2023-04-01T12:34:52.463Z,16.70
2023-04-01T12:37:34.969Z,17.10
2023-04-01T12:40:25.107Z,17.50
2023-04-01T12:43:04.401Z,17.80
2023-04-01T12:45:54.688Z,17.80
2023-04-01T12:48:42.991Z,17.70
2023-04-01T12:51:30.276Z,17.70
2023-04-01T12:54:15.327Z,17.90
2023-04-01T12:57:09.645Z,17.80
2023-04-01T13:00:23.102Z,17.70
2023-04-01T13:03:08.293Z,17.60
2023-04-01T13:06:06.138Z,18.00
2023-04-01T13:08:41.581Z,18.30
2023-04-01T13:11:14.899Z,18.20
2023-04-01T13:13:51.045Z,18.50
2023-04-01T13:16:31.039Z,18.40
2023-04-01T13:19:29.099Z,18.60
2023-04-01T13:22:04.572Z,18.60
2023-04-01T13:24:53.141Z,18.70
2023-04-01T13:27:39.069Z,18.60
2023-04-01T13:30:18.474Z,18.40
2023-04-01T13:32:54.903Z,18.30
2023-04-01T13:35:50.840Z,18.40
2023-04-01T13:38:34.517Z,18.60
2023-04-01T13:41:24.683Z,18.80
2023-04-01T13:44:01.124Z,18.50
2023-04-01T13:46:43.151Z,18.20
2023-04-01T13:49:42.346Z,18.00
2023-04-01T13:52:47.119Z,17.90
2023-04-01T13:55:51.966Z,17.90
2023-04-01T13:58:29.320Z,17.70
2023-04-01T14:01:20.067Z,17.60
2023-04-01T14:03:50.014Z,17.40
2023-04-01T14:06:29.152Z,17.30
2023-04-01T14:09:15.223Z,17.20
2023-04-01T14:12:09.965Z,17.10
2023-04-01T14:14:49.213Z,17.00
2023-04-01T14:17:29.071Z,16.90
2023-04-01T14:20:06.294Z,16.80
2023-04-01T14:22:48.273Z,16.70
2023-04-01T14:25:37.063Z,16.80
2023-04-01T14:28:13.812Z,17.10
2023-04-01T14:31:17.114Z,17.30
2023-04-01T14:34:31.310Z,17.20
2023-04-01T14:37:14.261Z,17.10
2023-04-01T14:40:08.858Z,17.20
2023-04-01T14:43:20.366Z,17.30
2023-04-01T14:45:53.228Z,17.40
2023-04-01T14:48:29.420Z,17.40
2023-04-01T14:51:03.681Z,17.60
2023-04-01T14:53:36.722Z,17.60
2023-04-01T14:56:05.178Z,17.80
2023-04-01T14:58:47.824Z,17.90
2023-04-01T15:01:33.702Z,18.00
2023-04-01T15:04:38.652Z,18.30
2023-04-01T15:07:40.019Z,18.30
2023-04-01T15:10:25.509Z,18.30
2023-04-01T15:13:11.314Z,18.20
2023-04-01T15:16:06.238Z,18.30
2023-04-01T15:18:51.414Z,18.10
2023-04-01T15:21:49.860Z,17.80
2023-04-01T15:24:22.758Z,17.60
2023-04-01T15:27:08.787Z,17.60
2023-04-01T15:30:02.521Z,17.70
2023-04-01T15:32:33.465Z,17.90
2023-04-01T15:35:04.564Z,17.90
2023-04-01T15:37:51.450Z,18.00
2023-04-01T15:40:44.178Z,17.90
2023-04-01T15:43:23.344Z,17.80
2023-04-01T15:46:13.432Z,17.80
2023-04-01T15:48:47.056Z,17.80
2023-04-01T15:51:23.651Z,17.60
2023-04-01T15:54:10.837Z,17.50
2023-04-01T15:56:56.605Z,17.30
2023-04-01T15:59:54.940Z,17.10
2023-04-01T16:02:44.332Z,16.90
2023-04-01T16:05:50.679Z,16.60
2023-04-01T16:08:36.584Z,16.30
2023-04-01T16:11:42.186Z,16.10
2023-04-01T16:14:32.957Z,16.00
2023-04-01T16:17:18.380Z,15.80
2023-04-01T16:20:18.547Z,15.70
2023-04-01T16:23:05.967Z,15.60
2023-04-01T16:25:41.573Z,15.50
2023-04-01T16:28:45.748Z,15.40
2023-04-01T16:31:31.660Z,15.30
2023-04-01T16:34:23.996Z,15.30
2023-04-01T16:37:01.971Z,15.20
2023-04-01T16:39:42.578Z,15.20
2023-04-01T16:42:24.464Z,15.10
2023-04-01T16:45:04.174Z,15.10
2023-04-01T16:47:53.136Z,15.10
2023-04-01T16:50:43.373Z,15.10
2023-04-01T16:53:19.262Z,15.00
2023-04-01T16:55:58.084Z,15.00
2023-04-01T16:58:36.246Z,14.90
2023-04-01T17:01:24.230Z,14.90
2023-04-01T17:03:58.734Z,14.80
2023-04-01T17:06:52.006Z,14.80
2023-04-01T17:09:38.436Z,14.80
2023-04-01T17:12:26.965Z,14.70
2023-04-01T17:15:37.905Z,14.70
2023-04-01T17:18:23.815Z,14.60
2023-04-01T17:21:18.949Z,14.40
2023-04-01T17:23:54.170Z,14.30
2023-04-01T17:26:47.591Z,14.20
2023-04-01T17:29:40.655Z,14.10
2023-04-01T17:32:36.349Z,13.90
2023-04-01T17:35:16.012Z,13.80
2023-04-01T17:37:50.054Z,13.60
2023-04-01T17:40:35.285Z,13.50
2023-04-01T17:43:17.805Z,13.40
2023-04-01T17:45:59.040Z,13.40
2023-04-01T17:48:43.712Z,13.30
2023-04-01T17:51:49.219Z,13.20
2023-04-01T17:54:48.032Z,13.20
2023-04-01T17:58:12.845Z,13.20
2023-04-01T18:01:02.192Z,13.10
2023-04-01T18:03:57.755Z,13.00
2023-04-01T18:06:51.401Z,13.00
2023-04-01T18:09:25.064Z,12.90
2023-04-01T18:12:09.824Z,12.80
2023-04-01T18:14:54.714Z,12.80
2023-04-01T18:17:22.797Z,12.70
2023-04-01T18:20:19.765Z,12.70
2023-04-01T18:23:25.703Z,12.60
2023-04-01T18:26:03.917Z,12.60
2023-04-01T18:28:43.779Z,12.50
2023-04-01T18:31:24.630Z,12.40
2023-04-01T18:34:18.397Z,12.40
2023-04-01T18:37:01.958Z,12.30
2023-04-01T18:39:41.723Z,12.20
2023-04-01T18:42:47.024Z,12.20
2023-04-01T18:45:35.466Z,12.10
2023-04-01T18:48:33.036Z,12.10
2023-04-01T18:51:15.965Z,12.00
2023-04-01T18:54:02.191Z,12.00
2023-04-01T18:56:37.268Z,11.90
2023-04-01T18:59:34.745Z,11.90
2023-04-01T19:02:29.489Z,11.90
2023-04-01T19:05:30.007Z,11.90
2023-04-01T19:08:22.106Z,11.90
2023-04-01T19:10:56.395Z,11.80
2023-04-01T19:13:44.662Z,11.80
2023-04-01T19:16:31.167Z,11.70
2023-04-01T19:19:12.597Z,11.70
2023-04-01T19:21:50.684Z,11.60
2023-04-01T19:24:21.858Z,11.60
2023-04-01T19:27:10.863Z,11.60
2023-04-01T19:29:50.393Z,11.50
2023-04-01T19:32:27.104Z,11.40
2023-04-01T19:35:18.721Z,11.40
2023-04-01T19:37:56.246Z,11.40
2023-04-01T19:40:44.907Z,11.40
2023-04-01T19:43:46.192Z,11.30
2023-04-01T19:46:42.084Z,11.30
2023-04-01T19:49:28.854Z,11.20
2023-04-01T19:52:20.243Z,11.20
2023-04-01T19:54:54.492Z,11.20
2023-04-01T19:57:40.142Z,11.10
2023-04-01T20:00:31.196Z,11.10
2023-04-01T20:03:37.415Z,11.10
2023-04-01T20:06:19.990Z,11.00
2023-04-01T20:08:59.111Z,11.00
2023-04-01T20:11:51.159Z,11.00
2023-04-01T20:14:31.673Z,10.90
2023-04-01T20:17:24.791Z,10.90
2023-04-01T20:20:04.620Z,10.90
2023-04-01T20:22:47.661Z,10.80
2023-04-01T20:25:34.327Z,10.80
2023-04-01T20:28:20.097Z,10.80
2023-04-01T20:31:16.698Z,10.80
2023-04-01T20:33:44.066Z,10.80
2023-04-01T20:36:37.682Z,10.80
2023-04-01T20:39:26.246Z,10.70
2023-04-01T20:41:53.248Z,10.70
2023-04-01T20:44:32.854Z,10.70
2023-04-01T20:47:22.631Z,10.70
2023-04-01T20:50:27.190Z,10.70
2023-04-01T20:53:00.739Z,10.60
2023-04-01T20:55:30.858Z,10.60
2023-04-01T20:58:11.318Z,10.60
2023-04-01T21:00:56.614Z,10.60
2023-04-01T21:03:39.692Z,10.50
2023-04-01T21:06:21.732Z,10.50
2023-04-01T21:09:12.559Z,10.50
2023-04-01T21:12:16.678Z,10.50
2023-04-01T21:15:05.748Z,10.50
2023-04-01T21:18:16.201Z,10.50
2023-04-01T21:21:08.439Z,10.60
2023-04-01T21:24:30.284Z,10.60
2023-04-01T21:27:12.443Z,10.60
2023-04-01T21:30:05.914Z,10.60
2023-04-01T21:33:02.065Z,10.60
2023-04-01T21:35:47.512Z,10.60
2023-04-01T21:38:37.070Z,10.70
2023-04-01T21:41:11.148Z,10.70
2023-04-01T21:44:07.199Z,10.70
2023-04-01T21:46:52.693Z,10.70
2023-04-01T21:49:34.057Z,10.70
2023-04-01T21:52:23.132Z,10.70
2023-04-01T21:55:27.225Z,10.70
2023-04-01T21:58:23.357Z,10.70
2023-04-01T22:01:05.616Z,10.70
2023-04-01T22:04:03.096Z,10.70
2023-04-01T22:06:39.409Z,10.70
2023-04-01T22:09:41.603Z,10.70
2023-04-01T22:12:32.380Z,10.70
2023-04-01T22:15:18.499Z,10.70
2023-04-01T22:17:59.101Z,10.70
2023-04-01T22:20:38.291Z,10.70
2023-04-01T22:23:30.175Z,10.70
2023-04-01T22:26:05.550Z,10.70
2023-04-01T22:28:54.483Z,10.70
2023-04-01T22:31:33.370Z,10.70
2023-04-01T22:34:14.749Z,10.70
2023-04-01T22:37:12.246Z,10.60
2023-04-01T22:40:10.978Z,10.60
2023-04-01T22:42:43.014Z,10.60
2023-04-01T22:45:45.855Z,10.60
2023-04-01T22:48:12.889Z,10.60
2023-04-01T22:50:54.965Z,10.60
2023-04-01T22:53:33.927Z,10.60
2023-04-01T22:56:06.394Z,10.60
2023-04-01T22:58:43.802Z,10.60
2023-04-01T23:01:22.199Z,10.70
2023-04-01T23:03:52.614Z,10.70
2023-04-01T23:06:28.980Z,10.70
2023-04-01T23:09:32.409Z,10.70
2023-04-01T23:12:05.834Z,10.70
2023-04-01T23:14:53.785Z,10.70
2023-04-01T23:17:20.921Z,10.80
2023-04-01T23:19:56.840Z,10.80
2023-04-01T23:22:28.871Z,10.80
2023-04-01T23:25:25.713Z,10.80
2023-04-01T23:27:52.676Z,10.80
2023-04-01T23:30:41.616Z,10.80
2023-04-01T23:33:21.956Z,10.80
2023-04-01T23:36:08.615Z,10.80
2023-04-01T23:38:42.860Z,10.80
2023-04-01T23:41:31.829Z,10.80
2023-04-01T23:44:10.713Z,10.80
2023-04-01T23:46:40.484Z,10.80
2023-04-01T23:49:15.288Z,10.70
2023-04-01T23:51:53.330Z,10.70
2023-04-01T23:54:35.585Z,10.70
2023-04-01T23:57:11.897Z,10.70
2023-04-01T23:59:39.154Z,10.70
